^^
Saratoga-Weather Station Historical Data
Daily Summary for May 19, 2022 Units:  Both    English   Metric
Daily Weekly Monthly Yearly Custom
  High: Low: Average:
Temperature: 86.7 °F /  30.4 °C 60.1 °F /  15.6 °C 73 °F /  22.8 °C
Dew Point: 67.8 °F /  19.9 °C 54.9 °F /  12.7 °C 61 °F /  16.1 °C
Humidity: 85% 45% 68%
Wind Speed: 12.1mph /  19.5km/h - 2.1mph /  3.3km/h
Wind Gust: 14mph /  22.5km/h - -
Wind- - SW
Pressure: 30.1 in /  1019.3 hPa 30 in /  1016.3 hPa -
Precipitation: 0 in /  0.0 mm    
Historical Graphs
 
 
Tabular Data for May 19, 2022
Time Temperature Dew Point Pressure Wind Wind Speed Wind Gust Humidity Rainfall Rate (Hourly) solar
00:03 66.6 °F /  19.2 °C 58.1 °F /  14.5 °C 30.1in /  1017.6hPa Calm     74% 0in /  0.0mm 0 W/m2
00:08 66.4 °F /  19.1 °C 58.3 °F /  14.6 °C 30in /  1017.3hPa Calm     75% 0in /  0.0mm 0 W/m2
00:13 66.4 °F /  19.1 °C 58.3 °F /  14.6 °C 30in /  1017.3hPa Calm     75% 0in /  0.0mm 0 W/m2
00:18 66.2 °F /  19 °C 58.1 °F /  14.5 °C 30in /  1017.3hPa Calm     75% 0in /  0.0mm 0 W/m2
00:23 66 °F /  18.9 °C 57.9 °F /  14.4 °C 30in /  1017.3hPa Calm   2mph /  3.2km/h 75% 0in /  0.0mm 0 W/m2
00:28 65.8 °F /  18.8 °C 57.7 °F /  14.3 °C 30in /  1017.3hPa Calm     75% 0in /  0.0mm 0 W/m2
00:33 65.8 °F /  18.8 °C 58.1 °F /  14.5 °C 30in /  1016.9hPa Calm   2mph /  3.2km/h 76% 0in /  0.0mm 0 W/m2
00:38 65.7 °F /  18.7 °C 57.9 °F /  14.4 °C 30in /  1016.9hPa Calm     76% 0in /  0.0mm 0 W/m2
00:43 65.7 °F /  18.7 °C 57.9 °F /  14.4 °C 30in /  1016.9hPa Calm     76% 0in /  0.0mm 0 W/m2
00:48 65.5 °F /  18.6 °C 57.7 °F /  14.3 °C 30in /  1016.9hPa Calm     76% 0in /  0.0mm 0 W/m2
00:53 65.3 °F /  18.5 °C 57.6 °F /  14.2 °C 30in /  1016.9hPa Calm     76% 0in /  0.0mm 0 W/m2
00:58 65.1 °F /  18.4 °C 57.7 °F /  14.3 °C 30in /  1016.9hPa Calm     77% 0in /  0.0mm 0 W/m2
01:03 64.9 °F /  18.3 °C 57.6 °F /  14.2 °C 30in /  1016.9hPa Calm     77% 0in /  0.0mm 0 W/m2
01:08 64.9 °F /  18.3 °C 57.6 °F /  14.2 °C 30in /  1016.9hPa Calm     77% 0in /  0.0mm 0 W/m2
01:13 64.8 °F /  18.2 °C 57.4 °F /  14.1 °C 30in /  1016.9hPa Calm     77% 0in /  0.0mm 0 W/m2
01:18 64.6 °F /  18.1 °C 57.6 °F /  14.2 °C 30in /  1016.9hPa Calm     78% 0in /  0.0mm 0 W/m2
01:23 64.6 °F /  18.1 °C 57.2 °F /  14 °C 30in /  1016.9hPa Calm   2mph /  3.2km/h 77% 0in /  0.0mm 0 W/m2
01:28 64.6 °F /  18.1 °C 57.2 °F /  14 °C 30in /  1016.9hPa SE 0.9mph /  1.4km/h 1mph /  1.6km/h 77% 0in /  0.0mm 0 W/m2
01:33 64.6 °F /  18.1 °C 56.8 °F /  13.8 °C 30in /  1016.9hPa Calm     76% 0in /  0.0mm 0 W/m2
01:38 64.6 °F /  18.1 °C 56.8 °F /  13.8 °C 30in /  1016.9hPa Calm     76% 0in /  0.0mm 0 W/m2
01:43 64.4 °F /  18 °C 57 °F /  13.9 °C 30in /  1016.9hPa Calm     77% 0in /  0.0mm 0 W/m2
01:48 64.2 °F /  17.9 °C 56.8 °F /  13.8 °C 30in /  1016.9hPa Calm     77% 0in /  0.0mm 0 W/m2
01:53 64.2 °F /  17.9 °C 56.8 °F /  13.8 °C 30in /  1016.6hPa Calm     77% 0in /  0.0mm 0 W/m2
01:58 64 °F /  17.8 °C 56.7 °F /  13.7 °C 30in /  1016.6hPa Calm     77% 0in /  0.0mm 0 W/m2
02:03 63.9 °F /  17.7 °C 56.8 °F /  13.8 °C 30in /  1016.6hPa Calm     78% 0in /  0.0mm 0 W/m2
02:08 63.9 °F /  17.7 °C 56.8 °F /  13.8 °C 30in /  1016.6hPa Calm     78% 0in /  0.0mm 0 W/m2
02:13 63.7 °F /  17.6 °C 56.7 °F /  13.7 °C 30in /  1016.6hPa Calm     78% 0in /  0.0mm 0 W/m2
02:18 63.7 °F /  17.6 °C 56.7 °F /  13.7 °C 30in /  1016.6hPa Calm     78% 0in /  0.0mm 0 W/m2
02:23 63.3 °F /  17.4 °C 56.7 °F /  13.7 °C 30in /  1016.6hPa Calm     79% 0in /  0.0mm 0 W/m2
02:28 63.3 °F /  17.4 °C 56.7 °F /  13.7 °C 30in /  1016.6hPa Calm     79% 0in /  0.0mm 0 W/m2
02:33 63.1 °F /  17.3 °C 56.5 °F /  13.6 °C 30in /  1016.6hPa Calm     79% 0in /  0.0mm 0 W/m2
02:38 63.1 °F /  17.3 °C 56.5 °F /  13.6 °C 30in /  1016.6hPa Calm     79% 0in /  0.0mm 0 W/m2
02:43 63.1 °F /  17.3 °C 56.5 °F /  13.6 °C 30in /  1016.6hPa Calm     79% 0in /  0.0mm 0 W/m2
02:48 63 °F /  17.2 °C 56.3 °F /  13.5 °C 30in /  1016.6hPa Calm   1mph /  1.6km/h 79% 0in /  0.0mm 0 W/m2
02:53 63 °F /  17.2 °C 56.7 °F /  13.7 °C 30in /  1016.6hPa SE 0.9mph /  1.4km/h 2mph /  3.2km/h 80% 0in /  0.0mm 0 W/m2
02:58 62.8 °F /  17.1 °C 56.5 °F /  13.6 °C 30in /  1016.6hPa Calm     80% 0in /  0.0mm 0 W/m2
03:03 62.8 °F /  17.1 °C 56.1 °F /  13.4 °C 30in /  1016.6hPa Calm     79% 0in /  0.0mm 0 W/m2
03:08 62.6 °F /  17 °C 55.9 °F /  13.3 °C 30in /  1016.6hPa Calm     79% 0in /  0.0mm 0 W/m2
03:13 62.4 °F /  16.9 °C 55.8 °F /  13.2 °C 30in /  1016.6hPa Calm     79% 0in /  0.0mm 0 W/m2
03:18 62.2 °F /  16.8 °C 55.9 °F /  13.3 °C 30in /  1016.6hPa Calm     80% 0in /  0.0mm 0 W/m2
03:23 62.1 °F /  16.7 °C 55.8 °F /  13.2 °C 30in /  1016.6hPa Calm     80% 0in /  0.0mm 0 W/m2
03:28 61.9 °F /  16.6 °C 55.6 °F /  13.1 °C 30in /  1016.6hPa Calm     80% 0in /  0.0mm 0 W/m2
03:33 61.9 °F /  16.6 °C 55.9 °F /  13.3 °C 30in /  1016.6hPa Calm     81% 0in /  0.0mm 0 W/m2
03:38 61.5 °F /  16.4 °C 55.6 °F /  13.1 °C 30in /  1016.6hPa Calm     81% 0in /  0.0mm 0 W/m2
03:43 61.3 °F /  16.3 °C 55.4 °F /  13 °C 30in /  1016.6hPa Calm     81% 0in /  0.0mm 0 W/m2
03:48 61.3 °F /  16.3 °C 55.4 °F /  13 °C 30in /  1016.6hPa Calm     81% 0in /  0.0mm 0 W/m2
03:53 61.3 °F /  16.3 °C 55.8 °F /  13.2 °C 30in /  1016.6hPa Calm     82% 0in /  0.0mm 0 W/m2
03:58 61.3 °F /  16.3 °C 55.8 °F /  13.2 °C 30in /  1016.6hPa Calm   1mph /  1.6km/h 82% 0in /  0.0mm 0 W/m2
04:03 61.3 °F /  16.3 °C 55.4 °F /  13 °C 30in /  1016.6hPa Calm     81% 0in /  0.0mm 0 W/m2
04:08 61.3 °F /  16.3 °C 55.4 °F /  13 °C 30in /  1016.6hPa Calm   1mph /  1.6km/h 81% 0in /  0.0mm 0 W/m2
04:13 61.3 °F /  16.3 °C 55.4 °F /  13 °C 30in /  1016.6hPa Calm     81% 0in /  0.0mm 0 W/m2
04:18 61.3 °F /  16.3 °C 55.4 °F /  13 °C 30in /  1016.6hPa Calm     81% 0in /  0.0mm 0 W/m2
04:23 61.3 °F /  16.3 °C 55.4 °F /  13 °C 30in /  1016.6hPa SE 0.9mph /  1.4km/h 1mph /  1.6km/h 81% 0in /  0.0mm 0 W/m2
04:28 61.3 °F /  16.3 °C 55.4 °F /  13 °C 30in /  1016.6hPa Calm     81% 0in /  0.0mm 0 W/m2
04:33 61.3 °F /  16.3 °C 55.4 °F /  13 °C 30in /  1016.6hPa Calm   1mph /  1.6km/h 81% 0in /  0.0mm 0 W/m2
04:38 61.3 °F /  16.3 °C 55.4 °F /  13 °C 30in /  1016.6hPa Calm     81% 0in /  0.0mm 0 W/m2
04:43 61.2 °F /  16.2 °C 55.2 °F /  12.9 °C 30in /  1016.6hPa Calm   1mph /  1.6km/h 81% 0in /  0.0mm 0 W/m2
04:48 61 °F /  16.1 °C 55 °F /  12.8 °C 30in /  1016.6hPa Calm     81% 0in /  0.0mm 0 W/m2
04:53 60.8 °F /  16 °C 55.2 °F /  12.9 °C 30in /  1016.6hPa Calm     82% 0in /  0.0mm 0 W/m2
04:58 60.8 °F /  16 °C 55.2 °F /  12.9 °C 30in /  1016.6hPa Calm     82% 0in /  0.0mm 0 W/m2
05:03 60.6 °F /  15.9 °C 55 °F /  12.8 °C 30in /  1016.6hPa Calm     82% 0in /  0.0mm 0 W/m2
05:08 60.4 °F /  15.8 °C 54.9 °F /  12.7 °C 30in /  1016.6hPa Calm     82% 0in /  0.0mm 0 W/m2
05:13 60.3 °F /  15.7 °C 55 °F /  12.8 °C 30in /  1016.6hPa Calm     83% 0in /  0.0mm 0 W/m2
05:18 60.3 °F /  15.7 °C 55 °F /  12.8 °C 30in /  1016.6hPa Calm     83% 0in /  0.0mm 0 W/m2
05:23 60.1 °F /  15.6 °C 54.9 °F /  12.7 °C 30in /  1016.6hPa Calm     83% 0in /  0.0mm 0 W/m2
05:28 60.1 °F /  15.6 °C 55.2 °F /  12.9 °C 30in /  1016.6hPa Calm     84% 0in /  0.0mm 0 W/m2
05:33 60.1 °F /  15.6 °C 55.2 °F /  12.9 °C 30in /  1016.9hPa Calm     84% 0in /  0.0mm 0 W/m2
05:38 60.1 °F /  15.6 °C 55.2 °F /  12.9 °C 30in /  1016.9hPa Calm     84% 0in /  0.0mm 0 W/m2
05:43 60.1 °F /  15.6 °C 55.2 °F /  12.9 °C 30in /  1016.9hPa Calm     84% 0in /  0.0mm 0 W/m2
05:48 60.1 °F /  15.6 °C 55.2 °F /  12.9 °C 30in /  1016.9hPa Calm     84% 0in /  0.0mm 0 W/m2
05:53 60.1 °F /  15.6 °C 55.2 °F /  12.9 °C 30in /  1016.9hPa Calm     84% 0in /  0.0mm 0 W/m2
05:58 60.3 °F /  15.7 °C 55.4 °F /  13 °C 30in /  1016.9hPa Calm     84% 0in /  0.0mm 5 W/m2
06:03 60.3 °F /  15.7 °C 55 °F /  12.8 °C 30in /  1016.9hPa Calm     83% 0in /  0.0mm 9 W/m2
06:08 60.3 °F /  15.7 °C 55 °F /  12.8 °C 30in /  1016.9hPa Calm     83% 0in /  0.0mm 12 W/m2
06:13 60.3 °F /  15.7 °C 55 °F /  12.8 °C 30in /  1016.9hPa Calm     83% 0in /  0.0mm 14 W/m2
06:18 60.3 °F /  15.7 °C 55.4 °F /  13 °C 30in /  1016.9hPa Calm     84% 0in /  0.0mm 16 W/m2
06:23 60.3 °F /  15.7 °C 55.4 °F /  13 °C 30in /  1016.9hPa Calm     84% 0in /  0.0mm 19 W/m2
06:28 60.3 °F /  15.7 °C 55.4 °F /  13 °C 30in /  1016.9hPa Calm     84% 0in /  0.0mm 21 W/m2
06:33 60.3 °F /  15.7 °C 55.4 °F /  13 °C 30in /  1016.9hPa Calm     84% 0in /  0.0mm 23 W/m2
06:38 60.4 °F /  15.8 °C 55.6 °F /  13.1 °C 30in /  1016.9hPa Calm     84% 0in /  0.0mm 26 W/m2
06:43 60.4 °F /  15.8 °C 55.6 °F /  13.1 °C 30in /  1016.9hPa Calm     84% 0in /  0.0mm 28 W/m2
06:48 60.4 °F /  15.8 °C 55.6 °F /  13.1 °C 30in /  1016.9hPa Calm     84% 0in /  0.0mm 32 W/m2
06:53 60.6 °F /  15.9 °C 56.1 °F /  13.4 °C 30in /  1016.9hPa Calm     85% 0in /  0.0mm 33 W/m2
06:58 60.8 °F /  16 °C 56.3 °F /  13.5 °C 30in /  1016.9hPa Calm     85% 0in /  0.0mm 42 W/m2
07:03 61 °F /  16.1 °C 56.1 °F /  13.4 °C 30in /  1016.9hPa Calm     84% 0in /  0.0mm 53 W/m2
07:08 61.2 °F /  16.2 °C 56.3 °F /  13.5 °C 30in /  1016.9hPa Calm     84% 0in /  0.0mm 53 W/m2
07:13 61.2 °F /  16.2 °C 56.3 °F /  13.5 °C 30in /  1016.9hPa Calm     84% 0in /  0.0mm 95 W/m2
07:18 61.5 °F /  16.4 °C 56.7 °F /  13.7 °C 30in /  1016.9hPa Calm     84% 0in /  0.0mm 91 W/m2
07:23 62.1 °F /  16.7 °C 56.8 °F /  13.8 °C 30in /  1017.3hPa Calm     83% 0in /  0.0mm 130 W/m2
07:28 63.1 °F /  17.3 °C 57.6 °F /  14.2 °C 30in /  1017.3hPa Calm     82% 0in /  0.0mm 141 W/m2
07:33 64 °F /  17.8 °C 57.7 °F /  14.3 °C 30in /  1017.3hPa Calm     80% 0in /  0.0mm 146 W/m2
07:38 64.8 °F /  18.2 °C 57.4 °F /  14.1 °C 30in /  1017.3hPa Calm     77% 0in /  0.0mm 171 W/m2
07:43 65.5 °F /  18.6 °C 57.7 °F /  14.3 °C 30in /  1016.9hPa Calm     76% 0in /  0.0mm 176 W/m2
07:48 66.4 °F /  19.1 °C 57.9 °F /  14.4 °C 30in /  1017.3hPa Calm     74% 0in /  0.0mm 190 W/m2
07:53 66.7 °F /  19.3 °C 57.7 °F /  14.3 °C 30in /  1017.3hPa Calm     73% 0in /  0.0mm 206 W/m2
07:58 67.3 °F /  19.6 °C 57.9 °F /  14.4 °C 30in /  1017.3hPa Calm   2mph /  3.2km/h 72% 0in /  0.0mm 213 W/m2
08:03 67.6 °F /  19.8 °C 58.3 °F /  14.6 °C 30in /  1017.3hPa East 2mph /  3.2km/h 2mph /  3.2km/h 72% 0in /  0.0mm 244 W/m2
08:08 68.4 °F /  20.2 °C 58.3 °F /  14.6 °C 30in /  1017.3hPa ENE 2mph /  3.2km/h 2mph /  3.2km/h 70% 0in /  0.0mm 183 W/m2
08:13 68.7 °F /  20.4 °C 58.1 °F /  14.5 °C 30in /  1017.3hPa Calm   3mph /  4.8km/h 69% 0in /  0.0mm 135 W/m2
08:18 68.9 °F /  20.5 °C 57.9 °F /  14.4 °C 30in /  1017.3hPa ENE 2mph /  3.2km/h 2mph /  3.2km/h 68% 0in /  0.0mm 118 W/m2
08:23 69.1 °F /  20.6 °C 58.5 °F /  14.7 °C 30in /  1017.3hPa ENE 2mph /  3.2km/h 3mph /  4.8km/h 69% 0in /  0.0mm 123 W/m2
08:28 69.1 °F /  20.6 °C 58.1 °F /  14.5 °C 30in /  1017.3hPa Calm   3mph /  4.8km/h 68% 0in /  0.0mm 139 W/m2
08:33 69.3 °F /  20.7 °C 58.6 °F /  14.8 °C 30in /  1017.3hPa East 2.9mph /  4.7km/h 3mph /  4.8km/h 69% 0in /  0.0mm 156 W/m2
08:43 70 °F /  21.1 °C 59 °F /  15 °C 30in /  1017.3hPa NE 2mph /  3.2km/h 3mph /  4.8km/h 68% 0in /  0.0mm 188 W/m2
08:48 70.2 °F /  21.2 °C 58.6 °F /  14.8 °C 30in /  1017.3hPa NE 0.9mph /  1.4km/h 4mph /  6.4km/h 67% 0in /  0.0mm 206 W/m2
08:54 70.3 °F /  21.3 °C 58.8 °F /  14.9 °C 30in /  1017.3hPa SE 2mph /  3.2km/h 3mph /  4.8km/h 67% 0in /  0.0mm 213 W/m2
08:59 70.3 °F /  21.3 °C 58.8 °F /  14.9 °C 30in /  1017.3hPa East 2mph /  3.2km/h 3mph /  4.8km/h 67% 0in /  0.0mm 214 W/m2
09:04 70.5 °F /  21.4 °C 58.6 °F /  14.8 °C 30in /  1017.3hPa East 2.9mph /  4.7km/h 7mph /  11.3km/h 66% 0in /  0.0mm 211 W/m2
09:09 70.5 °F /  21.4 °C 58.6 °F /  14.8 °C 30in /  1017.3hPa ESE 2mph /  3.2km/h 5mph /  8km/h 66% 0in /  0.0mm 206 W/m2
09:14 70.7 °F /  21.5 °C 58.8 °F /  14.9 °C 30in /  1017.3hPa ENE 2mph /  3.2km/h 6mph /  9.7km/h 66% 0in /  0.0mm 197 W/m2
09:19 70.5 °F /  21.4 °C 59 °F /  15 °C 30in /  1017.3hPa SE 2mph /  3.2km/h 4mph /  6.4km/h 67% 0in /  0.0mm 193 W/m2
09:24 70.5 °F /  21.4 °C 59 °F /  15 °C 30in /  1017.3hPa East 0.9mph /  1.4km/h 4mph /  6.4km/h 67% 0in /  0.0mm 193 W/m2
09:29 70.9 °F /  21.6 °C 59.4 °F /  15.2 °C 30in /  1017.3hPa ESE 2mph /  3.2km/h 4mph /  6.4km/h 67% 0in /  0.0mm 183 W/m2
09:34 71.1 °F /  21.7 °C 59.5 °F /  15.3 °C 30in /  1017.3hPa ENE 0.9mph /  1.4km/h 4mph /  6.4km/h 67% 0in /  0.0mm 183 W/m2
09:39 71.2 °F /  21.8 °C 59.7 °F /  15.4 °C 30in /  1017.3hPa SE 2.9mph /  4.7km/h 6mph /  9.7km/h 67% 0in /  0.0mm 179 W/m2
09:44 71.4 °F /  21.9 °C 59.5 °F /  15.3 °C 30in /  1017.3hPa NE 2.9mph /  4.7km/h 4mph /  6.4km/h 66% 0in /  0.0mm 192 W/m2
09:49 71.8 °F /  22.1 °C 59.7 °F /  15.4 °C 30in /  1017.3hPa North 0.9mph /  1.4km/h 6mph /  9.7km/h 66% 0in /  0.0mm 207 W/m2
09:54 72.3 °F /  22.4 °C 59.9 °F /  15.5 °C 30in /  1017.3hPa Calm   5mph /  8km/h 65% 0in /  0.0mm 211 W/m2
09:59 72.7 °F /  22.6 °C 60.3 °F /  15.7 °C 30in /  1017.3hPa East 2.9mph /  4.7km/h 4mph /  6.4km/h 65% 0in /  0.0mm 216 W/m2
10:04 72.7 °F /  22.6 °C 59.7 °F /  15.4 °C 30in /  1017.3hPa ENE 2.9mph /  4.7km/h 3mph /  4.8km/h 64% 0in /  0.0mm 299 W/m2
10:09 72.9 °F /  22.7 °C 60.4 °F /  15.8 °C 30in /  1016.9hPa ESE 2mph /  3.2km/h 4mph /  6.4km/h 65% 0in /  0.0mm 371 W/m2
10:14 73 °F /  22.8 °C 60.6 °F /  15.9 °C 30in /  1016.9hPa ENE 2.9mph /  4.7km/h 3mph /  4.8km/h 65% 0in /  0.0mm 504 W/m2
10:19 73.8 °F /  23.2 °C 60.8 °F /  16 °C 30in /  1016.9hPa East 4mph /  6.4km/h 7mph /  11.3km/h 64% 0in /  0.0mm 636 W/m2
10:24 73.9 °F /  23.3 °C 61 °F /  16.1 °C 30in /  1016.9hPa ENE 4mph /  6.4km/h 6mph /  9.7km/h 64% 0in /  0.0mm 508 W/m2
10:29 74.5 °F /  23.6 °C 61.5 °F /  16.4 °C 30in /  1017.3hPa East 2.9mph /  4.7km/h 4mph /  6.4km/h 64% 0in /  0.0mm 622 W/m2
10:34 74.5 °F /  23.6 °C 61 °F /  16.1 °C 30in /  1017.3hPa East 0.9mph /  1.4km/h 2mph /  3.2km/h 63% 0in /  0.0mm 515 W/m2
10:39 74.8 °F /  23.8 °C 61.3 °F /  16.3 °C 30in /  1017.3hPa SSW 0.9mph /  1.4km/h 2mph /  3.2km/h 63% 0in /  0.0mm 181 W/m2
10:44 75.4 °F /  24.1 °C 62.4 °F /  16.9 °C 30in /  1017.3hPa Calm   3mph /  4.8km/h 64% 0in /  0.0mm 555 W/m2
10:49 76.1 °F /  24.5 °C 62.1 °F /  16.7 °C 30in /  1016.9hPa NE 0.9mph /  1.4km/h 2mph /  3.2km/h 62% 0in /  0.0mm 612 W/m2
10:54 76.6 °F /  24.8 °C 61.7 °F /  16.5 °C 30in /  1016.9hPa NE 0.9mph /  1.4km/h 3mph /  4.8km/h 60% 0in /  0.0mm 638 W/m2
10:59 77.2 °F /  25.1 °C 62.2 °F /  16.8 °C 30in /  1016.9hPa East 6.9mph /  11.1km/h 7mph /  11.3km/h 60% 0in /  0.0mm 703 W/m2
11:04 77.4 °F /  25.2 °C 62.4 °F /  16.9 °C 30in /  1016.9hPa East 2mph /  3.2km/h 6mph /  9.7km/h 60% 0in /  0.0mm 605 W/m2
11:09 77.7 °F /  25.4 °C 62.8 °F /  17.1 °C 30in /  1016.9hPa East 2.9mph /  4.7km/h 5mph /  8km/h 60% 0in /  0.0mm 633 W/m2
11:14 77.7 °F /  25.4 °C 62.8 °F /  17.1 °C 30in /  1016.9hPa SE 2mph /  3.2km/h 4mph /  6.4km/h 60% 0in /  0.0mm 687 W/m2
11:19 78.3 °F /  25.7 °C 63.3 °F /  17.4 °C 30in /  1016.9hPa NNE 2.9mph /  4.7km/h 3mph /  4.8km/h 60% 0in /  0.0mm 626 W/m2
11:24 79 °F /  26.1 °C 63 °F /  17.2 °C 30in /  1016.9hPa NNE 2.9mph /  4.7km/h 4mph /  6.4km/h 58% 0in /  0.0mm 640 W/m2
11:29 79.2 °F /  26.2 °C 63.1 °F /  17.3 °C 30in /  1016.9hPa North 0.9mph /  1.4km/h 2mph /  3.2km/h 58% 0in /  0.0mm 700 W/m2
11:34 79.5 °F /  26.4 °C 62.4 °F /  16.9 °C 30in /  1016.6hPa Calm   7mph /  11.3km/h 56% 0in /  0.0mm 555 W/m2
11:39 79.7 °F /  26.5 °C 62.6 °F /  17 °C 30in /  1016.9hPa West 2.9mph /  4.7km/h 7mph /  11.3km/h 56% 0in /  0.0mm 712 W/m2
11:44 79.7 °F /  26.5 °C 63.7 °F /  17.6 °C 30in /  1016.9hPa WNW 2.9mph /  4.7km/h 3mph /  4.8km/h 58% 0in /  0.0mm 682 W/m2
11:49 79.5 °F /  26.4 °C 63 °F /  17.2 °C 30in /  1016.9hPa Calm   6mph /  9.7km/h 57% 0in /  0.0mm 708 W/m2
11:54 79.9 °F /  26.6 °C 63.9 °F /  17.7 °C 30in /  1016.9hPa WNW 4mph /  6.4km/h 7mph /  11.3km/h 58% 0in /  0.0mm 598 W/m2
11:59 79.7 °F /  26.5 °C 62.6 °F /  17 °C 30in /  1016.9hPa West 8.1mph /  13km/h 10mph /  16.1km/h 56% 0in /  0.0mm 705 W/m2
12:04 79.9 °F /  26.6 °C 63.3 °F /  17.4 °C 30in /  1016.9hPa WNW 4mph /  6.4km/h 5mph /  8km/h 57% 0in /  0.0mm 694 W/m2
12:09 80.1 °F /  26.7 °C 64.4 °F /  18 °C 30in /  1016.9hPa SSW 2mph /  3.2km/h 3mph /  4.8km/h 59% 0in /  0.0mm 810 W/m2
12:14 80.2 °F /  26.8 °C 63.7 °F /  17.6 °C 30in /  1016.9hPa WSW 2mph /  3.2km/h 8mph /  12.9km/h 57% 0in /  0.0mm 795 W/m2
12:19 80.2 °F /  26.8 °C 63.7 °F /  17.6 °C 30in /  1016.9hPa West 6.9mph /  11.1km/h 7mph /  11.3km/h 57% 0in /  0.0mm 763 W/m2
12:24 80.6 °F /  27 °C 64 °F /  17.8 °C 30in /  1016.9hPa East 0.9mph /  1.4km/h 3mph /  4.8km/h 57% 0in /  0.0mm 680 W/m2
12:29 81.1 °F /  27.3 °C 64 °F /  17.8 °C 30in /  1016.9hPa NE 0.9mph /  1.4km/h 7mph /  11.3km/h 56% 0in /  0.0mm 668 W/m2
12:34 81.7 °F /  27.6 °C 64.4 °F /  18 °C 30in /  1016.9hPa NNE 4mph /  6.4km/h 5mph /  8km/h 56% 0in /  0.0mm 789 W/m2
12:39 81.9 °F /  27.7 °C 64.6 °F /  18.1 °C 30in /  1016.9hPa ENE 2.9mph /  4.7km/h 8mph /  12.9km/h 56% 0in /  0.0mm 659 W/m2
12:44 82.2 °F /  27.9 °C 64.9 °F /  18.3 °C 30in /  1016.9hPa WNW 2mph /  3.2km/h 8mph /  12.9km/h 56% 0in /  0.0mm 793 W/m2
12:49 82.4 °F /  28 °C 64.6 °F /  18.1 °C 30in /  1016.6hPa NNW 4mph /  6.4km/h 4mph /  6.4km/h 55% 0in /  0.0mm 754 W/m2
12:54 82.2 °F /  27.9 °C 65.5 °F /  18.6 °C 30in /  1016.6hPa WNW 2mph /  3.2km/h 2mph /  3.2km/h 57% 0in /  0.0mm 770 W/m2
12:59 82.2 °F /  27.9 °C 64.4 °F /  18 °C 30in /  1016.6hPa WSW 2.9mph /  4.7km/h 7mph /  11.3km/h 55% 0in /  0.0mm 756 W/m2
13:04 82.4 °F /  28 °C 65.7 °F /  18.7 °C 30in /  1016.6hPa WNW 4.9mph /  7.9km/h 6mph /  9.7km/h 57% 0in /  0.0mm 758 W/m2
13:09 82.8 °F /  28.2 °C 65.5 °F /  18.6 °C 30in /  1016.6hPa WNW 4mph /  6.4km/h 11mph /  17.7km/h 56% 0in /  0.0mm 649 W/m2
13:14 82.8 °F /  28.2 °C 65.5 °F /  18.6 °C 30in /  1016.6hPa NNW 2mph /  3.2km/h 3mph /  4.8km/h 56% 0in /  0.0mm 629 W/m2
13:19 83.3 °F /  28.5 °C 66 °F /  18.9 °C 30in /  1016.6hPa NW 4.9mph /  7.9km/h 5mph /  8km/h 56% 0in /  0.0mm 531 W/m2
13:24 83.3 °F /  28.5 °C 65.5 °F /  18.6 °C 30in /  1016.6hPa SW 2.9mph /  4.7km/h 10mph /  16.1km/h 55% 0in /  0.0mm 585 W/m2
13:34 82.9 °F /  28.3 °C 65.7 °F /  18.7 °C 30in /  1016.6hPa West 2mph /  3.2km/h 5mph /  8km/h 56% 0in /  0.0mm 652 W/m2
13:39 83.7 °F /  28.7 °C 66.4 °F /  19.1 °C 30in /  1016.6hPa West 4mph /  6.4km/h 7mph /  11.3km/h 56% 0in /  0.0mm 670 W/m2
13:44 84 °F /  28.9 °C 65.7 °F /  18.7 °C 30in /  1016.6hPa NW 4mph /  6.4km/h 8mph /  12.9km/h 54% 0in /  0.0mm 679 W/m2
13:49 83.8 °F /  28.8 °C 66 °F /  18.9 °C 30in /  1016.6hPa WSW 4.9mph /  7.9km/h 8mph /  12.9km/h 55% 0in /  0.0mm 775 W/m2
13:54 84 °F /  28.9 °C 66.2 °F /  19 °C 30in /  1016.6hPa SE 0.9mph /  1.4km/h 3mph /  4.8km/h 55% 0in /  0.0mm 721 W/m2
13:59 84.6 °F /  29.2 °C 66 °F /  18.9 °C 30in /  1016.6hPa WSW 2mph /  3.2km/h 9mph /  14.5km/h 54% 0in /  0.0mm 724 W/m2
14:04 84.6 °F /  29.2 °C 65.5 °F /  18.6 °C 30in /  1016.6hPa West 6.9mph /  11.1km/h 9mph /  14.5km/h 53% 0in /  0.0mm 747 W/m2
14:09 84.4 °F /  29.1 °C 65.8 °F /  18.8 °C 30in /  1016.6hPa SSW 2mph /  3.2km/h 10mph /  16.1km/h 54% 0in /  0.0mm 480 W/m2
14:14 84.2 °F /  29 °C 64.6 °F /  18.1 °C 30in /  1016.6hPa WSW 2.9mph /  4.7km/h 9mph /  14.5km/h 52% 0in /  0.0mm 422 W/m2
14:19 84.4 °F /  29.1 °C 64.2 °F /  17.9 °C 30in /  1016.6hPa West 12.1mph /  19.5km/h 12mph /  19.3km/h 51% 0in /  0.0mm 942 W/m2
14:24 84.6 °F /  29.2 °C 63.9 °F /  17.7 °C 30in /  1016.6hPa North 2.9mph /  4.7km/h 6mph /  9.7km/h 50% 0in /  0.0mm 837 W/m2
14:29 84.7 °F /  29.3 °C 63.5 °F /  17.5 °C 30in /  1016.6hPa West 12mph /  19.3km/h 12mph /  19.3km/h 49% 0in /  0.0mm 875 W/m2
14:34 84.7 °F /  29.3 °C 62.2 °F /  16.8 °C 30in /  1016.6hPa West 2.9mph /  4.7km/h 7mph /  11.3km/h 47% 0in /  0.0mm 626 W/m2
14:39 84.7 °F /  29.3 °C 63 °F /  17.2 °C 30in /  1016.6hPa ENE 2.9mph /  4.7km/h 7mph /  11.3km/h 48% 0in /  0.0mm 891 W/m2
14:44 85.5 °F /  29.7 °C 63.5 °F /  17.5 °C 30in /  1016.6hPa WNW 4mph /  6.4km/h 7mph /  11.3km/h 48% 0in /  0.0mm 919 W/m2
14:49 85.6 °F /  29.8 °C 63.7 °F /  17.6 °C 30in /  1016.6hPa SW 6.9mph /  11.1km/h 10mph /  16.1km/h 48% 0in /  0.0mm 819 W/m2
14:54 85.6 °F /  29.8 °C 63.1 °F /  17.3 °C 30in /  1016.3hPa WSW 4mph /  6.4km/h 11mph /  17.7km/h 47% 0in /  0.0mm 821 W/m2
14:59 85.5 °F /  29.7 °C 63.5 °F /  17.5 °C 30in /  1016.3hPa WNW 2.9mph /  4.7km/h 4mph /  6.4km/h 48% 0in /  0.0mm 213 W/m2
15:04 84.9 °F /  29.4 °C 63.7 °F /  17.6 °C 30in /  1016.6hPa SW 4mph /  6.4km/h 11mph /  17.7km/h 49% 0in /  0.0mm 390 W/m2
15:09 84.7 °F /  29.3 °C 64 °F /  17.8 °C 30in /  1016.6hPa NW 4mph /  6.4km/h 6mph /  9.7km/h 50% 0in /  0.0mm 461 W/m2
15:14 84.4 °F /  29.1 °C 63.7 °F /  17.6 °C 30in /  1016.6hPa NW 2mph /  3.2km/h 6mph /  9.7km/h 50% 0in /  0.0mm 925 W/m2
15:19 84.4 °F /  29.1 °C 63.7 °F /  17.6 °C 30in /  1016.6hPa NW 6mph /  9.7km/h 9mph /  14.5km/h 50% 0in /  0.0mm 868 W/m2
15:25 84.4 °F /  29.1 °C 63.1 °F /  17.3 °C 30in /  1016.6hPa WSW 4mph /  6.4km/h 10mph /  16.1km/h 49% 0in /  0.0mm 526 W/m2
15:30 84.2 °F /  29 °C 63.5 °F /  17.5 °C 30in /  1016.6hPa NW 0.9mph /  1.4km/h 4mph /  6.4km/h 50% 0in /  0.0mm 417 W/m2
15:35 84.4 °F /  29.1 °C 63.7 °F /  17.6 °C 30in /  1016.6hPa NW 2mph /  3.2km/h 6mph /  9.7km/h 50% 0in /  0.0mm 905 W/m2
15:40 84.9 °F /  29.4 °C 64.2 °F /  17.9 °C 30in /  1016.6hPa West 2.9mph /  4.7km/h 6mph /  9.7km/h 50% 0in /  0.0mm 877 W/m2
15:45 84.9 °F /  29.4 °C 64.2 °F /  17.9 °C 30in /  1016.6hPa West 0.9mph /  1.4km/h 4mph /  6.4km/h 50% 0in /  0.0mm 795 W/m2
15:50 85.5 °F /  29.7 °C 64 °F /  17.8 °C 30in /  1016.6hPa West 2mph /  3.2km/h 6mph /  9.7km/h 49% 0in /  0.0mm 802 W/m2
15:55 86 °F /  30 °C 63.5 °F /  17.5 °C 30in /  1016.3hPa SW 0.9mph /  1.4km/h 3mph /  4.8km/h 47% 0in /  0.0mm 782 W/m2
16:00 86.4 °F /  30.2 °C 63.7 °F /  17.6 °C 30in /  1016.3hPa NW 6mph /  9.7km/h 7mph /  11.3km/h 47% 0in /  0.0mm 768 W/m2
16:05 86.2 °F /  30.1 °C 63 °F /  17.2 °C 30in /  1016.3hPa WNW 8.9mph /  14.3km/h 11mph /  17.7km/h 46% 0in /  0.0mm 751 W/m2
16:10 86.2 °F /  30.1 °C 63 °F /  17.2 °C 30in /  1016.3hPa WSW 2.9mph /  4.7km/h 6mph /  9.7km/h 46% 0in /  0.0mm 744 W/m2
16:15 86.4 °F /  30.2 °C 63.1 °F /  17.3 °C 30in /  1016.3hPa WNW 4mph /  6.4km/h 5mph /  8km/h 46% 0in /  0.0mm 726 W/m2
16:20 86.2 °F /  30.1 °C 63.5 °F /  17.5 °C 30in /  1016.3hPa WNW 10.1mph /  16.3km/h 10mph /  16.1km/h 47% 0in /  0.0mm 714 W/m2
16:25 86 °F /  30 °C 62.8 °F /  17.1 °C 30in /  1016.3hPa West 6mph /  9.7km/h 8mph /  12.9km/h 46% 0in /  0.0mm 729 W/m2
16:30 85.8 °F /  29.9 °C 63.3 °F /  17.4 °C 30in /  1016.3hPa NNW 4.9mph /  7.9km/h 7mph /  11.3km/h 47% 0in /  0.0mm 612 W/m2
16:35 85.8 °F /  29.9 °C 63.3 °F /  17.4 °C 30in /  1016.3hPa WNW 0.9mph /  1.4km/h 8mph /  12.9km/h 47% 0in /  0.0mm 761 W/m2
16:40 86.4 °F /  30.2 °C 63.1 °F /  17.3 °C 30in /  1016.3hPa WNW 4mph /  6.4km/h 7mph /  11.3km/h 46% 0in /  0.0mm 135 W/m2
16:45 86.4 °F /  30.2 °C 63.1 °F /  17.3 °C 30in /  1016.6hPa North 8.1mph /  13km/h 8mph /  12.9km/h 46% 0in /  0.0mm 691 W/m2
16:50 86.2 °F /  30.1 °C 62.4 °F /  16.9 °C 30in /  1016.6hPa NNW 4.9mph /  7.9km/h 8mph /  12.9km/h 45% 0in /  0.0mm 686 W/m2
16:55 86 °F /  30 °C 62.8 °F /  17.1 °C 30in /  1016.6hPa WNW 2.9mph /  4.7km/h 9mph /  14.5km/h 46% 0in /  0.0mm 656 W/m2
17:00 86.2 °F /  30.1 °C 62.4 °F /  16.9 °C 30in /  1016.3hPa West 6mph /  9.7km/h 14mph /  22.5km/h 45% 0in /  0.0mm 650 W/m2
17:05 86.4 °F /  30.2 °C 63.1 °F /  17.3 °C 30in /  1016.3hPa South 2mph /  3.2km/h 4mph /  6.4km/h 46% 0in /  0.0mm 633 W/m2
17:10 86.7 °F /  30.4 °C 62.8 °F /  17.1 °C 30in /  1016.3hPa WNW 8.9mph /  14.3km/h 9mph /  14.5km/h 45% 0in /  0.0mm 622 W/m2
17:15 86.2 °F /  30.1 °C 62.4 °F /  16.9 °C 30in /  1016.3hPa WNW 6.9mph /  11.1km/h 10mph /  16.1km/h 45% 0in /  0.0mm 601 W/m2
17:20 86 °F /  30 °C 63.5 °F /  17.5 °C 30in /  1016.3hPa NW 6.9mph /  11.1km/h 12mph /  19.3km/h 47% 0in /  0.0mm 596 W/m2
17:30 85.8 °F /  29.9 °C 63.9 °F /  17.7 °C 30in /  1016.3hPa NW 4.9mph /  7.9km/h 10mph /  16.1km/h 48% 0in /  0.0mm 573 W/m2
17:35 85.8 °F /  29.9 °C 63.9 °F /  17.7 °C 30in /  1016.3hPa West 8.1mph /  13km/h 10mph /  16.1km/h 48% 0in /  0.0mm 552 W/m2
17:40 85.6 °F /  29.8 °C 63.1 °F /  17.3 °C 30in /  1016.3hPa SW 4mph /  6.4km/h 10mph /  16.1km/h 47% 0in /  0.0mm 538 W/m2
17:45 85.6 °F /  29.8 °C 63.7 °F /  17.6 °C 30in /  1016.3hPa WNW 2mph /  3.2km/h 11mph /  17.7km/h 48% 0in /  0.0mm 534 W/m2
17:50 85.8 °F /  29.9 °C 63.3 °F /  17.4 °C 30in /  1016.3hPa SW 4mph /  6.4km/h 13mph /  20.9km/h 47% 0in /  0.0mm 462 W/m2
17:55 85.3 °F /  29.6 °C 64 °F /  17.8 °C 30in /  1016.6hPa South 2.9mph /  4.7km/h 7mph /  11.3km/h 49% 0in /  0.0mm 88 W/m2
18:00 84.9 °F /  29.4 °C 63.7 °F /  17.6 °C 30in /  1016.3hPa NW 4mph /  6.4km/h 14mph /  22.5km/h 49% 0in /  0.0mm 496 W/m2
18:05 84.9 °F /  29.4 °C 64.2 °F /  17.9 °C 30in /  1016.3hPa NW 4.9mph /  7.9km/h 9mph /  14.5km/h 50% 0in /  0.0mm 476 W/m2
18:10 84.7 °F /  29.3 °C 64 °F /  17.8 °C 30in /  1016.6hPa West 6mph /  9.7km/h 14mph /  22.5km/h 50% 0in /  0.0mm 165 W/m2
18:20 84.6 °F /  29.2 °C 64.4 °F /  18 °C 30in /  1016.6hPa West 8.9mph /  14.3km/h 9mph /  14.5km/h 51% 0in /  0.0mm 494 W/m2
18:25 83.8 °F /  28.8 °C 63.9 °F /  17.7 °C 30in /  1016.6hPa SW 4mph /  6.4km/h 11mph /  17.7km/h 51% 0in /  0.0mm 84 W/m2
18:30 83.5 °F /  28.6 °C 64.6 °F /  18.1 °C 30in /  1016.9hPa West 6mph /  9.7km/h 7mph /  11.3km/h 53% 0in /  0.0mm 160 W/m2
18:35 82.9 °F /  28.3 °C 66.2 °F /  19 °C 30in /  1016.9hPa NNW 2.9mph /  4.7km/h 10mph /  16.1km/h 57% 0in /  0.0mm 132 W/m2
18:40 82.2 °F /  27.9 °C 66.4 °F /  19.1 °C 30in /  1016.9hPa WNW 6mph /  9.7km/h 11mph /  17.7km/h 59% 0in /  0.0mm 125 W/m2
18:45 81.7 °F /  27.6 °C 66.4 °F /  19.1 °C 30in /  1016.9hPa West 6mph /  9.7km/h 10mph /  16.1km/h 60% 0in /  0.0mm 139 W/m2
18:50 81.7 °F /  27.6 °C 66.4 °F /  19.1 °C 30in /  1016.9hPa West 4mph /  6.4km/h 11mph /  17.7km/h 60% 0in /  0.0mm 137 W/m2
18:55 81.3 °F /  27.4 °C 67.1 °F /  19.5 °C 30in /  1016.9hPa West 6mph /  9.7km/h 11mph /  17.7km/h 62% 0in /  0.0mm 104 W/m2
19:00 81.3 °F /  27.4 °C 67.1 °F /  19.5 °C 30in /  1016.9hPa WNW 4.9mph /  7.9km/h 8mph /  12.9km/h 62% 0in /  0.0mm 81 W/m2
19:05 81.1 °F /  27.3 °C 66.9 °F /  19.4 °C 30in /  1016.9hPa WNW 10.1mph /  16.3km/h 11mph /  17.7km/h 62% 0in /  0.0mm 84 W/m2
19:10 81.3 °F /  27.4 °C 67.1 °F /  19.5 °C 30in /  1016.9hPa WNW 4.9mph /  7.9km/h 7mph /  11.3km/h 62% 0in /  0.0mm 76 W/m2
19:15 81.5 °F /  27.5 °C 67.3 °F /  19.6 °C 30in /  1016.9hPa WNW 8.1mph /  13km/h 8mph /  12.9km/h 62% 0in /  0.0mm 63 W/m2
19:20 81 °F /  27.2 °C 66.7 °F /  19.3 °C 30in /  1016.9hPa WNW 6.9mph /  11.1km/h 10mph /  16.1km/h 62% 0in /  0.0mm 62 W/m2
19:25 80.6 °F /  27 °C 66.9 °F /  19.4 °C 30in /  1016.9hPa SW 4.9mph /  7.9km/h 8mph /  12.9km/h 63% 0in /  0.0mm 44 W/m2
19:30 80.2 °F /  26.8 °C 66.9 °F /  19.4 °C 30in /  1017.3hPa NW 2.9mph /  4.7km/h 5mph /  8km/h 64% 0in /  0.0mm 49 W/m2
19:35 80.2 °F /  26.8 °C 67.5 °F /  19.7 °C 30in /  1017.3hPa West 6.9mph /  11.1km/h 12mph /  19.3km/h 65% 0in /  0.0mm 63 W/m2
19:40 80.2 °F /  26.8 °C 67.8 °F /  19.9 °C 30in /  1017.3hPa NNW 2mph /  3.2km/h 5mph /  8km/h 66% 0in /  0.0mm 58 W/m2
19:45 80.2 °F /  26.8 °C 67.8 °F /  19.9 °C 30in /  1017.3hPa WNW 2.9mph /  4.7km/h 12mph /  19.3km/h 66% 0in /  0.0mm 54 W/m2
19:50 80.1 °F /  26.7 °C 67.6 °F /  19.8 °C 30in /  1017.3hPa West 2.9mph /  4.7km/h 8mph /  12.9km/h 66% 0in /  0.0mm 51 W/m2
19:55 79.7 °F /  26.5 °C 67.3 °F /  19.6 °C 30in /  1017.3hPa WNW 2.9mph /  4.7km/h 11mph /  17.7km/h 66% 0in /  0.0mm 49 W/m2
20:00 79.3 °F /  26.3 °C 67.5 °F /  19.7 °C 30in /  1017.3hPa WNW 4mph /  6.4km/h 6mph /  9.7km/h 67% 0in /  0.0mm 62 W/m2
20:05 79 °F /  26.1 °C 67.5 °F /  19.7 °C 30in /  1017.3hPa WSW 4.9mph /  7.9km/h 6mph /  9.7km/h 68% 0in /  0.0mm 39 W/m2
20:10 78.6 °F /  25.9 °C 67.1 °F /  19.5 °C 30.1in /  1017.6hPa WSW 4mph /  6.4km/h 6mph /  9.7km/h 68% 0in /  0.0mm 30 W/m2
20:15 78.3 °F /  25.7 °C 66.7 °F /  19.3 °C 30.1in /  1017.6hPa West 4mph /  6.4km/h 6mph /  9.7km/h 68% 0in /  0.0mm 30 W/m2
20:20 78.1 °F /  25.6 °C 67.1 °F /  19.5 °C 30.1in /  1017.6hPa NNE 11mph /  17.7km/h 11mph /  17.7km/h 69% 0in /  0.0mm 25 W/m2
20:25 77.9 °F /  25.5 °C 66.9 °F /  19.4 °C 30.1in /  1017.6hPa West 2.9mph /  4.7km/h 7mph /  11.3km/h 69% 0in /  0.0mm 32 W/m2
20:30 77.7 °F /  25.4 °C 66.7 °F /  19.3 °C 30.1in /  1018.0hPa West 4mph /  6.4km/h 10mph /  16.1km/h 69% 0in /  0.0mm 33 W/m2
20:35 77.5 °F /  25.3 °C 66.6 °F /  19.2 °C 30.1in /  1018.0hPa West 2mph /  3.2km/h 4mph /  6.4km/h 69% 0in /  0.0mm 26 W/m2
20:40 77.4 °F /  25.2 °C 66.4 °F /  19.1 °C 30.1in /  1018.0hPa West 2mph /  3.2km/h 7mph /  11.3km/h 69% 0in /  0.0mm 28 W/m2
20:45 77.2 °F /  25.1 °C 66.2 °F /  19 °C 30.1in /  1018.0hPa NNW 4mph /  6.4km/h 6mph /  9.7km/h 69% 0in /  0.0mm 25 W/m2
20:50 77 °F /  25 °C 66.4 °F /  19.1 °C 30.1in /  1018.0hPa West 2.9mph /  4.7km/h 8mph /  12.9km/h 70% 0in /  0.0mm 21 W/m2
20:55 76.8 °F /  24.9 °C 66.2 °F /  19 °C 30.1in /  1018.0hPa NW 0.9mph /  1.4km/h 2mph /  3.2km/h 70% 0in /  0.0mm 18 W/m2
21:00 76.6 °F /  24.8 °C 66.2 °F /  19 °C 30.1in /  1018.3hPa NW 4mph /  6.4km/h 8mph /  12.9km/h 70% 0in /  0.0mm 16 W/m2
21:05 76.5 °F /  24.7 °C 67.1 °F /  19.5 °C 30.1in /  1018.3hPa NNW 4.9mph /  7.9km/h 5mph /  8km/h 73% 0in /  0.0mm 11 W/m2
21:10 75.7 °F /  24.3 °C 66.9 °F /  19.4 °C 30.1in /  1018.3hPa ENE 0.9mph /  1.4km/h 4mph /  6.4km/h 74% 0in /  0.0mm 7 W/m2
21:15 75.2 °F /  24 °C 66.4 °F /  19.1 °C 30.1in /  1018.3hPa NW 4mph /  6.4km/h 4mph /  6.4km/h 74% 0in /  0.0mm 0 W/m2
21:20 74.8 °F /  23.8 °C 66 °F /  18.9 °C 30.1in /  1018.3hPa ESE 2mph /  3.2km/h 3mph /  4.8km/h 74% 0in /  0.0mm 0 W/m2
21:25 74.5 °F /  23.6 °C 66 °F /  18.9 °C 30.1in /  1018.3hPa ENE 0.9mph /  1.4km/h 5mph /  8km/h 75% 0in /  0.0mm 0 W/m2
21:30 73.9 °F /  23.3 °C 65.5 °F /  18.6 °C 30.1in /  1018.6hPa WNW 2mph /  3.2km/h 5mph /  8km/h 75% 0in /  0.0mm 0 W/m2
21:35 73.6 °F /  23.1 °C 64.8 °F /  18.2 °C 30.1in /  1018.6hPa Calm   5mph /  8km/h 74% 0in /  0.0mm 0 W/m2
21:40 73 °F /  22.8 °C 64.6 °F /  18.1 °C 30.1in /  1018.6hPa Calm   5mph /  8km/h 75% 0in /  0.0mm 0 W/m2
21:45 72.7 °F /  22.6 °C 64.2 °F /  17.9 °C 30.1in /  1018.6hPa South 0.9mph /  1.4km/h 5mph /  8km/h 75% 0in /  0.0mm 0 W/m2
21:50 72.1 °F /  22.3 °C 63.3 °F /  17.4 °C 30.1in /  1019.0hPa WSW 0.9mph /  1.4km/h 3mph /  4.8km/h 74% 0in /  0.0mm 0 W/m2
21:55 71.8 °F /  22.1 °C 63.5 °F /  17.5 °C 30.1in /  1019.0hPa ENE 0.9mph /  1.4km/h 4mph /  6.4km/h 75% 0in /  0.0mm 0 W/m2
22:00 71.6 °F /  22 °C 63.3 °F /  17.4 °C 30.1in /  1019.0hPa ENE 0.9mph /  1.4km/h 1mph /  1.6km/h 75% 0in /  0.0mm 0 W/m2
22:05 71.4 °F /  21.9 °C 63.1 °F /  17.3 °C 30.1in /  1019.0hPa SE 2mph /  3.2km/h 2mph /  3.2km/h 75% 0in /  0.0mm 0 W/m2
22:10 71.2 °F /  21.8 °C 63 °F /  17.2 °C 30.1in /  1019.0hPa Calm   3mph /  4.8km/h 75% 0in /  0.0mm 0 W/m2
22:15 71.1 °F /  21.7 °C 63.1 °F /  17.3 °C 30.1in /  1019.0hPa NNW 0.9mph /  1.4km/h 1mph /  1.6km/h 76% 0in /  0.0mm 0 W/m2
22:20 70.9 °F /  21.6 °C 63 °F /  17.2 °C 30.1in /  1019.0hPa Calm   1mph /  1.6km/h 76% 0in /  0.0mm 0 W/m2
22:25 70.7 °F /  21.5 °C 62.8 °F /  17.1 °C 30.1in /  1019.0hPa Calm   3mph /  4.8km/h 76% 0in /  0.0mm 0 W/m2
22:31 70.5 °F /  21.4 °C 62.6 °F /  17 °C 30.1in /  1019.3hPa Calm   2mph /  3.2km/h 76% 0in /  0.0mm 0 W/m2
22:36 70.3 °F /  21.3 °C 62.4 °F /  16.9 °C 30.1in /  1019.3hPa Calm   3mph /  4.8km/h 76% 0in /  0.0mm 0 W/m2
22:41 70.2 °F /  21.2 °C 62.6 °F /  17 °C 30.1in /  1019.3hPa ESE 0.9mph /  1.4km/h 1mph /  1.6km/h 77% 0in /  0.0mm 0 W/m2
22:51 70 °F /  21.1 °C 62.4 °F /  16.9 °C 30.1in /  1019.3hPa Calm     77% 0in /  0.0mm 0 W/m2
22:56 69.8 °F /  21 °C 62.2 °F /  16.8 °C 30.1in /  1019.3hPa Calm     77% 0in /  0.0mm 0 W/m2
23:01 69.6 °F /  20.9 °C 62.4 °F /  16.9 °C 30.1in /  1019.3hPa ENE 0.9mph /  1.4km/h 2mph /  3.2km/h 78% 0in /  0.0mm 0 W/m2
23:06 69.4 °F /  20.8 °C 62.2 °F /  16.8 °C 30.1in /  1019.3hPa Calm   3mph /  4.8km/h 78% 0in /  0.0mm 0 W/m2
23:11 69.4 °F /  20.8 °C 62.6 °F /  17 °C 30.1in /  1019.3hPa Calm   3mph /  4.8km/h 79% 0in /  0.0mm 0 W/m2
23:16 69.3 °F /  20.7 °C 62.4 °F /  16.9 °C 30.1in /  1019.3hPa ENE 0.9mph /  1.4km/h 1mph /  1.6km/h 79% 0in /  0.0mm 0 W/m2
23:21 69.1 °F /  20.6 °C 62.2 °F /  16.8 °C 30.1in /  1019.3hPa Calm     79% 0in /  0.0mm 0 W/m2
23:26 68.7 °F /  20.4 °C 62.2 °F /  16.8 °C 30.1in /  1019.3hPa Calm     80% 0in /  0.0mm 0 W/m2
23:31 68.4 °F /  20.2 °C 61.9 °F /  16.6 °C 30.1in /  1019.3hPa Calm   2mph /  3.2km/h 80% 0in /  0.0mm 0 W/m2
23:36 68.2 °F /  20.1 °C 62.1 °F /  16.7 °C 30.1in /  1019.3hPa Calm     81% 0in /  0.0mm 0 W/m2
23:41 67.8 °F /  19.9 °C 61.7 °F /  16.5 °C 30.1in /  1019.3hPa Calm     81% 0in /  0.0mm 0 W/m2
23:46 67.6 °F /  19.8 °C 61.9 °F /  16.6 °C 30.1in /  1019.3hPa Calm     82% 0in /  0.0mm 0 W/m2
23:51 67.5 °F /  19.7 °C 62.1 °F /  16.7 °C 30.1in /  1019.3hPa Calm     83% 0in /  0.0mm 0 W/m2
23:56 67.3 °F /  19.6 °C 61.9 °F /  16.6 °C 30.1in /  1019.3hPa Calm     83% 0in /  0.0mm 0 W/m2
Juneau County Weather
Compliments of Weather Underground - 4 mb